createdAt,value
2018-02-25T00:01:06.676Z,340.83
2018-02-25T00:03:34.772Z,340.35
2018-02-25T00:06:02.825Z,339.75
2018-02-25T00:08:30.881Z,344.70
2018-02-25T00:10:59.126Z,349.05
2018-02-25T00:13:27.175Z,346.20
2018-02-25T00:15:55.256Z,358.17
2018-02-25T00:18:23.316Z,355.67
2018-02-25T00:20:51.383Z,357.35
2018-02-25T00:23:19.439Z,363.17
2018-02-25T00:25:48.262Z,356.98
2018-02-25T00:28:16.348Z,363.75
2018-02-25T00:30:44.382Z,375.20
2018-02-25T00:33:12.430Z,372.33
2018-02-25T00:35:40.713Z,371.45
2018-02-25T00:38:08.742Z,377.10
2018-02-25T00:40:36.799Z,374.95
2018-02-25T00:43:04.869Z,384.33
2018-02-25T00:45:32.897Z,376.92
2018-02-25T00:48:01.715Z,373.92
2018-02-25T00:50:29.764Z,381.08
2018-02-25T00:52:57.849Z,381.55
2018-02-25T00:55:25.911Z,380.52
2018-02-25T00:57:54.060Z,385.23
2018-02-25T01:00:22.115Z,393.85
2018-02-25T01:02:50.176Z,394.42
2018-02-25T01:05:18.280Z,396.20
2018-02-25T01:07:46.362Z,394.35
2018-02-25T01:10:15.163Z,396.87
2018-02-25T01:12:43.231Z,396.80
2018-02-25T01:15:11.283Z,401.87
2018-02-25T01:17:39.385Z,401.92
2018-02-25T01:20:07.465Z,403.35
2018-02-25T01:22:35.545Z,416.12
2018-02-25T01:25:03.603Z,413.15
2018-02-25T01:27:31.669Z,406.75
2018-02-25T01:29:59.717Z,412.83
2018-02-25T01:32:27.837Z,412.67
2018-02-25T01:34:55.899Z,408.48
2018-02-25T01:37:23.940Z,414.80
2018-02-25T01:39:52.001Z,432.20
2018-02-25T01:42:20.866Z,430.63
2018-02-25T01:44:48.936Z,434.17
2018-02-25T01:47:17.027Z,429.02
2018-02-25T01:49:45.096Z,420.05
2018-02-25T01:52:13.136Z,433.95
2018-02-25T01:54:41.208Z,439.45
2018-02-25T01:57:09.266Z,434.15
2018-02-25T01:59:37.342Z,438.98
2018-02-25T02:02:05.412Z,435.90
2018-02-25T02:04:33.469Z,440.77
2018-02-25T02:07:02.290Z,435.17
2018-02-25T02:09:30.394Z,439.27
2018-02-25T02:11:58.440Z,444.70
2018-02-25T02:14:26.510Z,444.02
2018-02-25T02:16:54.566Z,442.52
2018-02-25T02:19:22.632Z,442.20
2018-02-25T02:21:50.692Z,453.05
2018-02-25T02:24:18.744Z,450.27
2018-02-25T02:26:46.799Z,451.85
2018-02-25T02:29:14.846Z,457.98
2018-02-25T02:31:42.901Z,457.38
2018-02-25T02:34:10.988Z,450.23
2018-02-25T02:36:39.080Z,462.02
2018-02-25T02:39:07.115Z,454.60
2018-02-25T02:41:35.161Z,460.33
2018-02-25T02:44:03.196Z,464.10
2018-02-25T02:46:32.029Z,466.67
2018-02-25T02:49:00.060Z,464.67
2018-02-25T02:51:28.108Z,467.52
2018-02-25T02:53:56.147Z,471.63
2018-02-25T02:56:24.952Z,471.75
2018-02-25T02:58:53.044Z,480.02
2018-02-25T03:01:21.674Z,473.65
2018-02-25T03:03:49.731Z,480.92
2018-02-25T03:06:18.563Z,478.10
2018-02-25T03:08:46.616Z,472.80
2018-02-25T03:11:15.455Z,474.20
2018-02-25T03:13:43.511Z,482.80
2018-02-25T03:16:11.537Z,480.58
2018-02-25T03:18:41.082Z,486.08
2018-02-25T03:21:09.115Z,491.02
2018-02-25T03:23:37.195Z,487.92
2018-02-25T03:26:05.253Z,493.30
2018-02-25T03:28:33.290Z,520.50
2018-02-25T03:31:01.349Z,488.63
2018-02-25T03:33:29.432Z,498.08
2018-02-25T03:35:57.495Z,498.10
2018-02-25T03:38:25.526Z,499.00
2018-02-25T03:40:53.571Z,502.23
2018-02-25T03:43:21.629Z,502.00
2018-02-25T03:45:49.684Z,493.50
2018-02-25T03:48:17.738Z,504.20
2018-02-25T03:50:45.797Z,486.85
2018-02-25T03:53:13.852Z,505.92
2018-02-25T03:55:41.900Z,505.58
2018-02-25T03:58:09.949Z,496.15
2018-02-25T04:00:38.022Z,497.75
2018-02-25T04:03:06.069Z,497.75
2018-02-25T04:05:34.135Z,495.27
2018-02-25T04:08:02.930Z,512.10
2018-02-25T04:10:31.009Z,494.60
2018-02-25T04:12:59.093Z,498.48
2018-02-25T04:15:27.150Z,494.60
2018-02-25T04:17:55.207Z,502.23
2018-02-25T04:20:23.263Z,502.25
2018-02-25T04:22:51.308Z,497.35
2018-02-25T04:25:19.381Z,477.90
2018-02-25T04:27:47.437Z,500.35
2018-02-25T04:30:16.252Z,490.38
2018-02-25T04:32:44.306Z,500.85
2018-02-25T04:35:12.372Z,503.17
2018-02-25T04:37:40.522Z,460.95
2018-02-25T04:40:08.571Z,449.70
2018-02-25T04:42:36.638Z,447.40
2018-02-25T04:45:04.692Z,445.23
2018-02-25T04:47:32.707Z,446.63
2018-02-25T04:50:00.791Z,442.08
2018-02-25T04:52:28.833Z,435.65
2018-02-25T04:54:56.906Z,441.48
2018-02-25T04:57:24.971Z,434.48
2018-02-25T04:59:53.010Z,436.12
2018-02-25T05:02:21.090Z,437.83
2018-02-25T05:04:49.140Z,440.17
2018-02-25T05:07:17.198Z,433.40
2018-02-25T05:09:45.263Z,430.08
2018-02-25T05:12:14.076Z,423.13
2018-02-25T05:14:42.384Z,421.45
2018-02-25T05:17:10.433Z,417.77
2018-02-25T05:19:38.476Z,427.42
2018-02-25T05:22:06.518Z,420.83
2018-02-25T05:24:34.556Z,417.67
2018-02-25T05:27:02.643Z,421.95
2018-02-25T05:29:30.690Z,416.38
2018-02-25T05:31:58.729Z,420.42
2018-02-25T05:34:26.763Z,420.62
2018-02-25T05:36:54.824Z,417.55
2018-02-25T05:39:22.893Z,421.80
2018-02-25T05:41:50.917Z,420.58
2018-02-25T05:44:18.974Z,416.80
2018-02-25T05:46:47.054Z,418.33
2018-02-25T05:49:15.102Z,419.90
2018-02-25T05:51:43.179Z,421.27
2018-02-25T05:54:11.240Z,419.65
2018-02-25T05:56:39.314Z,408.98
2018-02-25T05:59:08.128Z,411.30
2018-02-25T06:01:36.181Z,414.30
2018-02-25T06:04:04.276Z,413.58
2018-02-25T06:06:32.526Z,411.17
2018-02-25T06:09:00.546Z,419.42
2018-02-25T06:11:28.580Z,426.33
2018-02-25T06:13:56.616Z,419.55
2018-02-25T06:16:24.683Z,430.20
2018-02-25T06:18:52.724Z,419.55
2018-02-25T06:21:20.773Z,419.75
2018-02-25T06:23:49.634Z,419.27
2018-02-25T06:26:17.696Z,416.92
2018-02-25T06:28:45.812Z,414.70
2018-02-25T06:31:13.850Z,405.33
2018-02-25T06:33:41.892Z,403.90
2018-02-25T06:36:09.940Z,400.95
2018-02-25T06:38:37.964Z,403.48
2018-02-25T06:41:06.059Z,421.25
2018-02-25T06:43:34.119Z,405.35
2018-02-25T06:46:02.162Z,396.25
2018-02-25T06:48:30.201Z,391.80
2018-02-25T06:50:58.270Z,160.40
2018-02-25T06:53:26.335Z,136.18
2018-02-25T06:55:55.133Z,218.68
2018-02-25T06:58:23.183Z,204.32
2018-02-25T07:00:51.219Z,193.62
2018-02-25T07:03:19.270Z,185.12
2018-02-25T07:05:47.349Z,76.65
2018-02-25T07:08:15.397Z,86.07
2018-02-25T07:10:43.435Z,93.22
2018-02-25T07:13:11.479Z,104.22
2018-02-25T07:15:39.545Z,103.87
2018-02-25T07:18:07.639Z,99.15
2018-02-25T07:20:35.716Z,100.35
2018-02-25T07:23:03.779Z,95.50
2018-02-25T07:25:31.856Z,89.60
2018-02-25T07:27:59.910Z,85.50
2018-02-25T07:30:28.003Z,76.95
2018-02-25T07:32:56.145Z,59.88
2018-02-25T07:35:24.212Z,29.80
2018-02-25T07:37:52.276Z,49.80
2018-02-25T07:40:20.347Z,45.65
2018-02-25T07:42:48.469Z,42.47
2018-02-25T07:45:16.526Z,39.03
2018-02-25T07:47:44.616Z,38.10
2018-02-25T07:50:13.342Z,36.92
2018-02-25T07:52:41.810Z,31.45
2018-02-25T07:55:09.918Z,25.02
2018-02-25T07:57:38.006Z,32.40
2018-02-25T08:00:06.164Z,22.42
2018-02-25T08:02:34.572Z,22.62
2018-02-25T08:05:02.612Z,22.60
2018-02-25T08:07:31.107Z,20.88
2018-02-25T08:09:59.226Z,24.30
2018-02-25T08:12:28.128Z,19.92
2018-02-25T08:14:56.295Z,21.95
2018-02-25T08:17:24.450Z,23.12
2018-02-25T08:19:52.457Z,27.02
2018-02-25T08:22:20.518Z,26.15
2018-02-25T08:24:48.608Z,25.42
2018-02-25T08:27:16.661Z,21.67
2018-02-25T08:29:44.757Z,21.65
2018-02-25T08:32:12.808Z,21.98
2018-02-25T08:34:40.877Z,18.45
2018-02-25T08:37:08.928Z,14.23
2018-02-25T08:39:36.954Z,23.60
2018-02-25T08:42:05.034Z,22.45
2018-02-25T08:44:33.071Z,22.60
2018-02-25T08:47:01.949Z,23.73
2018-02-25T08:49:30.071Z,23.05
2018-02-25T08:51:58.101Z,25.52
2018-02-25T08:54:26.184Z,27.00
2018-02-25T08:56:54.225Z,26.27
2018-02-25T08:59:22.262Z,27.35
2018-02-25T09:01:50.304Z,27.02
2018-02-25T09:04:18.357Z,27.02
2018-02-25T09:06:46.460Z,27.45
2018-02-25T09:09:14.529Z,27.85
2018-02-25T09:11:42.579Z,26.77
2018-02-25T09:14:10.711Z,28.12
2018-02-25T09:16:38.825Z,27.30
2018-02-25T09:19:06.909Z,29.20
2018-02-25T09:21:35.722Z,29.70
2018-02-25T09:24:03.782Z,30.48
2018-02-25T09:26:31.892Z,28.23
2018-02-25T09:28:59.935Z,28.15
2018-02-25T09:31:28.032Z,29.90
2018-02-25T09:33:56.102Z,29.02
2018-02-25T09:36:24.155Z,30.58
2018-02-25T09:38:52.207Z,29.05
2018-02-25T09:41:20.281Z,29.20
2018-02-25T09:43:48.369Z,31.12
2018-02-25T09:46:16.405Z,26.77
2018-02-25T09:48:44.438Z,26.52
2018-02-25T09:51:12.516Z,27.90
2018-02-25T09:53:40.557Z,17.48
2018-02-25T09:56:08.628Z,18.05
2018-02-25T09:58:36.766Z,23.67
2018-02-25T10:01:04.932Z,26.58
2018-02-25T10:03:32.998Z,26.80
2018-02-25T10:06:11.249Z,27.42
2018-02-25T10:08:39.400Z,28.90
2018-02-25T10:11:08.271Z,29.30
2018-02-25T10:13:36.316Z,29.25
2018-02-25T10:16:04.486Z,30.73
2018-02-25T10:18:32.531Z,30.50
2018-02-25T10:21:00.568Z,29.83
2018-02-25T10:23:28.627Z,31.65
2018-02-25T10:25:56.683Z,32.20
2018-02-25T10:28:24.739Z,32.58
2018-02-25T10:30:52.823Z,32.58
2018-02-25T10:33:20.878Z,33.10
2018-02-25T10:35:48.961Z,32.92
2018-02-25T10:38:17.026Z,33.10
2018-02-25T10:40:45.086Z,32.10
2018-02-25T10:43:13.224Z,32.85
2018-02-25T10:45:42.031Z,33.28
2018-02-25T10:48:10.109Z,33.20
2018-02-25T10:50:38.177Z,32.15
2018-02-25T10:53:06.257Z,32.17
2018-02-25T10:55:34.749Z,29.98
2018-02-25T10:58:02.786Z,34.47
2018-02-25T11:00:36.748Z,35.55
2018-02-25T11:03:04.791Z,37.67
2018-02-25T11:05:32.918Z,35.15
2018-02-25T11:08:01.662Z,37.10
2018-02-25T11:10:30.164Z,37.58
2018-02-25T11:12:58.265Z,38.28
2018-02-25T11:15:26.389Z,38.63
2018-02-25T11:17:54.421Z,39.97
2018-02-25T11:20:22.473Z,40.92
2018-02-25T11:22:50.508Z,41.08
2018-02-25T11:25:18.679Z,35.85
2018-02-25T11:27:46.740Z,35.90
2018-02-25T11:30:15.542Z,33.72
2018-02-25T11:32:43.658Z,23.52
2018-02-25T11:35:11.760Z,23.70
2018-02-25T11:37:39.849Z,28.35
2018-02-25T11:40:08.019Z,31.58
2018-02-25T11:42:36.177Z,34.67
2018-02-25T11:45:04.372Z,34.40
2018-02-25T11:47:32.419Z,35.42
2018-02-25T11:50:00.464Z,35.90
2018-02-25T11:52:28.581Z,39.22
2018-02-25T11:54:56.658Z,39.65
2018-02-25T11:57:24.715Z,41.03
2018-02-25T11:59:52.771Z,40.33
2018-02-25T12:02:21.008Z,40.12
2018-02-25T12:04:49.089Z,41.35
2018-02-25T12:07:17.146Z,42.42
2018-02-25T12:09:45.210Z,43.72
2018-02-25T12:12:13.268Z,41.40
2018-02-25T12:14:42.089Z,42.30
2018-02-25T12:17:10.192Z,43.50
2018-02-25T12:19:38.255Z,43.10
2018-02-25T12:22:06.299Z,44.17
2018-02-25T12:24:34.401Z,43.70
2018-02-25T12:27:02.423Z,46.88
2018-02-25T12:29:30.503Z,44.53
2018-02-25T12:31:58.571Z,44.53
2018-02-25T12:34:26.609Z,45.78
2018-02-25T12:36:54.647Z,46.50
2018-02-25T12:39:22.689Z,48.47
2018-02-25T12:41:50.779Z,45.90
2018-02-25T12:44:19.765Z,46.25
2018-02-25T12:46:47.809Z,47.33
2018-02-25T12:49:15.857Z,45.90
2018-02-25T12:51:43.952Z,47.78
2018-02-25T12:54:12.039Z,47.85
2018-02-25T12:56:40.151Z,50.35
2018-02-25T12:59:08.223Z,47.53
2018-02-25T13:01:36.267Z,48.05
2018-02-25T13:04:04.317Z,45.65
2018-02-25T13:06:33.167Z,46.42
2018-02-25T13:09:01.203Z,46.70
2018-02-25T13:11:29.234Z,49.05
2018-02-25T13:13:57.285Z,49.10
2018-02-25T13:16:25.358Z,48.53
2018-02-25T13:18:53.416Z,50.30
2018-02-25T13:21:21.458Z,48.50
2018-02-25T13:23:50.569Z,50.85
2018-02-25T13:26:18.628Z,49.58
2018-02-25T13:28:46.670Z,49.90
2018-02-25T13:31:15.518Z,50.70
2018-02-25T13:33:43.542Z,49.38
2018-02-25T13:36:12.358Z,50.33
2018-02-25T13:38:40.403Z,50.95
2018-02-25T13:41:08.462Z,49.65
2018-02-25T13:43:38.027Z,50.92
2018-02-25T13:46:06.132Z,51.85
2018-02-25T13:48:34.199Z,50.70
2018-02-25T13:51:02.269Z,52.62
2018-02-25T13:53:30.314Z,52.53
2018-02-25T13:55:58.394Z,53.72
2018-02-25T13:58:26.442Z,20.45
2018-02-25T14:00:54.527Z,21.27
2018-02-25T14:03:22.625Z,27.85
2018-02-25T14:05:51.877Z,29.87
2018-02-25T14:08:20.583Z,38.83
2018-02-25T14:10:48.820Z,40.12
2018-02-25T14:13:16.939Z,40.80
2018-02-25T14:15:44.985Z,40.33
2018-02-25T14:18:13.147Z,41.30
2018-02-25T14:20:41.221Z,41.95
2018-02-25T14:23:10.039Z,43.05
2018-02-25T14:25:38.100Z,33.22
2018-02-25T14:28:06.148Z,31.85
2018-02-25T14:30:34.225Z,36.70
2018-02-25T14:33:02.290Z,37.67
2018-02-25T14:35:31.119Z,36.33
2018-02-25T14:37:59.185Z,34.17
2018-02-25T14:40:27.288Z,31.87
2018-02-25T14:42:55.349Z,28.75
2018-02-25T14:45:23.410Z,27.20
2018-02-25T14:47:51.476Z,26.33
2018-02-25T14:50:19.555Z,23.92
2018-02-25T14:52:47.642Z,24.27
2018-02-25T14:55:16.041Z,21.08
2018-02-25T14:57:44.087Z,21.02
2018-02-25T15:00:12.152Z,19.80
2018-02-25T15:02:40.203Z,18.23
2018-02-25T15:05:08.296Z,16.02
2018-02-25T15:07:36.379Z,15.43
2018-02-25T15:10:04.448Z,14.52
2018-02-25T15:12:32.512Z,14.52
2018-02-25T15:15:00.556Z,13.27
2018-02-25T15:17:28.648Z,11.90
2018-02-25T15:19:56.805Z,11.93
2018-02-25T15:22:24.888Z,10.95
2018-02-25T15:24:52.957Z,10.20
2018-02-25T15:27:21.046Z,9.85
2018-02-25T15:29:49.100Z,8.63
2018-02-25T15:32:17.175Z,8.30
2018-02-25T15:34:45.269Z,8.88
2018-02-25T15:37:13.374Z,7.78
2018-02-25T15:39:42.837Z,7.15
2018-02-25T15:42:11.614Z,6.93
2018-02-25T15:44:39.776Z,6.37
2018-02-25T15:47:08.620Z,6.65
2018-02-25T15:49:36.692Z,5.95
2018-02-25T15:52:04.801Z,5.75
2018-02-25T15:54:32.859Z,5.07
2018-02-25T15:57:00.892Z,5.15
2018-02-25T15:59:28.948Z,4.80
2018-02-25T16:01:56.987Z,4.60
2018-02-25T16:04:25.790Z,4.37
2018-02-25T16:06:53.861Z,4.30
2018-02-25T16:09:22.659Z,3.80
2018-02-25T16:11:50.795Z,4.00
2018-02-25T16:14:18.846Z,3.75
2018-02-25T16:16:46.905Z,3.70
2018-02-25T16:19:14.997Z,3.45
2018-02-25T16:21:43.027Z,3.42
2018-02-25T16:24:11.152Z,2.97
2018-02-25T16:26:39.227Z,6.32
2018-02-25T16:29:07.348Z,3.97
2018-02-25T16:31:35.406Z,3.40
2018-02-25T16:34:03.479Z,3.65
2018-02-25T16:36:31.529Z,4.68
2018-02-25T16:38:59.620Z,6.28
2018-02-25T16:41:27.688Z,5.22
2018-02-25T16:43:56.578Z,4.40
2018-02-25T16:46:24.611Z,5.15
2018-02-25T16:48:52.688Z,4.20
2018-02-25T16:51:20.818Z,4.75
2018-02-25T16:53:48.873Z,4.25
2018-02-25T16:56:16.924Z,3.75
2018-02-25T16:58:44.984Z,4.15
2018-02-25T17:01:13.863Z,3.50
2018-02-25T17:03:41.948Z,3.92
2018-02-25T17:06:10.032Z,3.92
2018-02-25T17:08:38.090Z,3.37
2018-02-25T17:11:06.121Z,3.87
2018-02-25T17:13:34.192Z,4.82
2018-02-25T17:16:02.327Z,4.10
2018-02-25T17:18:30.944Z,3.92
2018-02-25T17:20:58.997Z,4.10
2018-02-25T17:23:27.057Z,3.62
2018-02-25T17:25:55.122Z,3.65
2018-02-25T17:28:23.160Z,3.45
2018-02-25T17:30:51.200Z,4.00
2018-02-25T17:33:19.294Z,3.42
2018-02-25T17:35:47.386Z,3.92
2018-02-25T17:38:15.438Z,3.33
2018-02-25T17:40:43.516Z,3.30
2018-02-25T17:43:11.570Z,3.30
2018-02-25T17:45:39.637Z,3.08
2018-02-25T17:48:08.452Z,3.33
2018-02-25T17:50:36.510Z,3.20
2018-02-25T17:53:04.958Z,3.17
2018-02-25T17:55:33.827Z,3.12
2018-02-25T17:58:06.642Z,3.00
2018-02-25T18:00:30.636Z,2.75
2018-02-25T18:02:58.698Z,2.70
2018-02-25T18:05:26.732Z,2.62
2018-02-25T18:07:54.822Z,2.58
2018-02-25T18:10:22.851Z,2.42
2018-02-25T18:12:50.886Z,2.45
2018-02-25T18:15:18.980Z,2.78
2018-02-25T18:17:47.022Z,2.58
2018-02-25T18:20:15.072Z,2.80
2018-02-25T18:22:43.121Z,3.20
2018-02-25T18:25:11.174Z,3.55
2018-02-25T18:27:40.206Z,3.10
2018-02-25T18:30:08.251Z,3.00
2018-02-25T18:32:36.308Z,2.90
2018-02-25T18:35:04.319Z,3.00
2018-02-25T18:37:32.454Z,2.80
2018-02-25T18:40:00.516Z,2.50
2018-02-25T18:42:28.599Z,2.70
2018-02-25T18:44:56.732Z,2.53
2018-02-25T18:47:25.536Z,2.70
2018-02-25T18:49:53.627Z,2.50
2018-02-25T18:52:21.672Z,2.30
2018-02-25T18:54:49.756Z,2.28
2018-02-25T18:57:18.631Z,2.22
2018-02-25T18:59:46.713Z,2.28
2018-02-25T19:02:15.577Z,2.30
2018-02-25T19:04:43.630Z,2.20
2018-02-25T19:07:11.662Z,2.20
2018-02-25T19:09:39.738Z,2.25
2018-02-25T19:12:07.777Z,2.00
2018-02-25T19:14:35.850Z,2.20
2018-02-25T19:17:03.903Z,2.80
2018-02-25T19:19:31.998Z,4.35
2018-02-25T19:22:00.277Z,5.40
2018-02-25T19:24:33.697Z,5.82
2018-02-25T19:27:01.765Z,8.05
2018-02-25T19:29:29.836Z,8.93
2018-02-25T19:31:57.927Z,10.60
2018-02-25T19:34:28.682Z,12.18
2018-02-25T19:37:02.145Z,14.55
2018-02-25T19:39:35.768Z,15.85
2018-02-25T19:42:03.825Z,17.45
2018-02-25T19:44:31.896Z,19.73
2018-02-25T19:46:59.922Z,20.80
2018-02-25T19:49:28.005Z,24.52
2018-02-25T19:51:56.081Z,24.25
2018-02-25T19:54:24.119Z,26.27
2018-02-25T19:56:52.172Z,27.55
2018-02-25T19:59:20.409Z,28.35
2018-02-25T20:01:48.483Z,28.67
2018-02-25T20:04:16.536Z,31.37
2018-02-25T20:06:44.616Z,32.85
2018-02-25T20:09:12.713Z,33.33
2018-02-25T20:11:40.802Z,35.22
2018-02-25T20:14:08.954Z,36.60
2018-02-25T20:16:37.761Z,38.17
2018-02-25T20:19:05.842Z,37.95
2018-02-25T20:21:33.973Z,39.15
2018-02-25T20:24:02.013Z,41.92
2018-02-25T20:26:30.098Z,42.55
2018-02-25T20:28:58.159Z,42.95
2018-02-25T20:31:26.232Z,44.13
2018-02-25T20:33:54.294Z,44.22
2018-02-25T20:36:22.351Z,44.03
2018-02-25T20:38:50.430Z,40.92
2018-02-25T20:41:18.483Z,38.47
2018-02-25T20:43:46.541Z,36.35
2018-02-25T20:46:14.607Z,36.00
2018-02-25T20:48:42.686Z,32.97
2018-02-25T20:51:10.772Z,32.75
2018-02-25T20:53:38.864Z,32.00
2018-02-25T20:56:06.915Z,28.90
2018-02-25T20:58:34.975Z,29.30
2018-02-25T21:01:03.033Z,25.50
2018-02-25T21:03:31.869Z,26.58
2018-02-25T21:05:59.924Z,26.40
2018-02-25T21:08:28.012Z,22.35
2018-02-25T21:10:56.057Z,21.87
2018-02-25T21:13:24.893Z,21.92
2018-02-25T21:15:53.850Z,20.70
2018-02-25T21:18:21.950Z,19.65
2018-02-25T21:20:49.998Z,17.87
2018-02-25T21:23:18.084Z,17.27
2018-02-25T21:25:46.167Z,15.60
2018-02-25T21:28:14.241Z,15.60
2018-02-25T21:30:42.338Z,14.63
2018-02-25T21:33:10.394Z,15.00
2018-02-25T21:35:38.458Z,13.75
2018-02-25T21:38:06.491Z,13.45
2018-02-25T21:40:34.516Z,13.20
2018-02-25T21:43:02.543Z,13.55
2018-02-25T21:45:30.596Z,13.07
2018-02-25T21:47:58.666Z,13.43
2018-02-25T21:50:26.707Z,12.18
2018-02-25T21:52:54.783Z,11.85
2018-02-25T21:55:24.333Z,11.18
2018-02-25T21:57:57.810Z,12.40
2018-02-25T22:00:31.314Z,11.32
2018-02-25T22:06:05.234Z,11.35
2018-02-25T22:08:33.280Z,11.45
2018-02-25T22:11:01.349Z,10.73
2018-02-25T22:13:29.402Z,10.68
2018-02-25T22:15:57.441Z,9.95
2018-02-25T22:18:25.518Z,10.10
2018-02-25T22:20:53.539Z,10.07
2018-02-25T22:23:21.613Z,9.40
2018-02-25T22:25:49.641Z,9.35
2018-02-25T22:28:17.680Z,10.02
2018-02-25T22:30:45.816Z,9.18
2018-02-25T22:33:14.011Z,9.43
2018-02-25T22:35:42.111Z,9.55
2018-02-25T22:38:10.138Z,8.82
2018-02-25T22:40:38.197Z,8.43
2018-02-25T22:43:06.228Z,8.85
2018-02-25T22:45:34.247Z,8.35
2018-02-25T22:48:02.317Z,8.48
2018-02-25T22:50:30.355Z,8.02
2018-02-25T22:52:58.410Z,8.02
2018-02-25T22:55:26.636Z,8.43
2018-02-25T22:57:54.694Z,8.50
2018-02-25T23:00:22.763Z,8.00
2018-02-25T23:02:50.801Z,7.05
2018-02-25T23:05:18.846Z,7.40
2018-02-25T23:07:46.881Z,7.50
2018-02-25T23:10:14.911Z,7.03
2018-02-25T23:12:42.981Z,7.30
2018-02-25T23:15:11.122Z,7.28
2018-02-25T23:17:39.159Z,6.80
2018-02-25T23:20:07.198Z,6.47
2018-02-25T23:22:35.231Z,6.32
2018-02-25T23:25:03.265Z,6.80
2018-02-25T23:27:31.317Z,6.85
2018-02-25T23:29:59.342Z,6.50
2018-02-25T23:32:27.386Z,6.65
2018-02-25T23:34:55.436Z,6.03
2018-02-25T23:37:24.237Z,6.18
2018-02-25T23:39:52.274Z,6.18
2018-02-25T23:42:20.324Z,5.93
2018-02-25T23:44:48.357Z,5.87
2018-02-25T23:47:16.416Z,5.25
2018-02-25T23:49:45.253Z,5.95
2018-02-25T23:52:13.279Z,5.55
2018-02-25T23:54:41.364Z,5.80
2018-02-25T23:57:09.428Z,5.10
2018-02-25T23:59:37.546Z,5.55
